createdAt,value
2019-06-15T00:04:09.222Z,20.49
2019-06-15T00:14:42.676Z,20.75
2019-06-15T00:25:16.119Z,20.62
2019-06-15T00:35:49.658Z,20.52
2019-06-15T00:46:23.306Z,20.52
2019-06-15T00:56:56.233Z,20.34
2019-06-15T01:07:28.953Z,20.08
2019-06-15T01:18:02.619Z,20.00
2019-06-15T01:28:35.915Z,19.75
2019-06-15T01:39:09.354Z,19.71
2019-06-15T01:49:43.079Z,19.67
2019-06-15T02:00:20.831Z,19.05
2019-06-15T02:10:55.404Z,19.42
2019-06-15T02:21:28.876Z,19.31
2019-06-15T02:32:01.688Z,19.11
2019-06-15T02:42:35.074Z,18.54
2019-06-15T02:53:08.610Z,18.61
2019-06-15T03:03:42.461Z,18.15
2019-06-15T03:14:16.074Z,18.99
2019-06-15T03:24:49.771Z,19.64
2019-06-15T03:35:23.351Z,20.22
2019-06-15T03:45:56.916Z,21.38
2019-06-15T03:56:30.327Z,22.75
2019-06-15T04:07:03.986Z,23.95
2019-06-15T04:17:36.585Z,24.64
2019-06-15T04:28:09.360Z,25.77
2019-06-15T04:38:43.019Z,27.13
2019-06-15T04:49:16.677Z,27.01
2019-06-15T04:59:50.159Z,27.31
2019-06-15T05:10:23.425Z,26.71
2019-06-15T05:20:56.855Z,28.07
2019-06-15T05:31:30.477Z,27.67
2019-06-15T05:42:04.091Z,27.84
2019-06-15T05:52:37.537Z,28.21
2019-06-15T06:03:11.282Z,29.17
2019-06-15T06:13:44.909Z,29.35
2019-06-15T06:24:18.532Z,28.56
2019-06-15T06:34:52.028Z,29.01
2019-06-15T06:45:24.954Z,29.47
2019-06-15T06:55:58.479Z,30.76
2019-06-15T07:06:31.170Z,29.51
2019-06-15T07:17:04.792Z,30.77
2019-06-15T07:27:38.217Z,30.23
2019-06-15T07:38:11.781Z,30.56
2019-06-15T07:48:45.229Z,30.59
2019-06-15T07:59:18.801Z,30.62
2019-06-15T08:09:52.486Z,30.43
2019-06-15T08:20:26.837Z,30.50
2019-06-15T08:31:03.869Z,30.64
2019-06-15T08:41:37.542Z,29.45
2019-06-15T08:52:10.961Z,29.17
2019-06-15T09:02:44.355Z,29.48
2019-06-15T09:13:17.862Z,28.76
2019-06-15T09:23:50.576Z,29.84
2019-06-15T09:34:23.219Z,29.82
2019-06-15T09:44:56.780Z,30.10
2019-06-15T09:55:30.481Z,30.26
2019-06-15T10:06:05.599Z,31.01
2019-06-15T10:16:38.412Z,30.64
2019-06-15T10:27:11.961Z,31.21
2019-06-15T10:37:45.437Z,29.38
2019-06-15T10:48:18.728Z,28.42
2019-06-15T10:58:51.470Z,29.87
2019-06-15T11:09:25.034Z,30.05
2019-06-15T11:19:58.725Z,30.54
2019-06-15T11:30:32.219Z,31.14
2019-06-15T11:41:05.151Z,31.18
2019-06-15T11:51:38.798Z,30.84
2019-06-15T12:02:12.457Z,29.77
2019-06-15T12:12:45.909Z,28.35
2019-06-15T12:23:19.367Z,29.22
2019-06-15T12:33:52.246Z,28.91
2019-06-15T12:44:26.047Z,28.62
2019-06-15T12:54:59.726Z,29.00
2019-06-15T13:05:32.458Z,29.19
2019-06-15T13:16:06.027Z,28.37
2019-06-15T13:26:39.863Z,27.74
2019-06-15T13:37:13.291Z,29.00
2019-06-15T13:47:46.907Z,29.19
2019-06-15T13:58:21.668Z,29.17
2019-06-15T14:08:55.313Z,29.43
2019-06-15T14:19:28.874Z,29.00
2019-06-15T14:30:02.301Z,29.12
2019-06-15T14:40:35.786Z,28.48
2019-06-15T14:51:09.386Z,28.46
2019-06-15T15:01:43.086Z,28.93
2019-06-15T15:12:16.645Z,28.74
2019-06-15T15:22:50.029Z,27.33
2019-06-15T15:33:22.938Z,26.77
2019-06-15T15:43:55.628Z,26.98
2019-06-15T15:54:29.288Z,26.90
2019-06-15T16:05:03.028Z,26.48
2019-06-15T16:15:37.288Z,26.38
2019-06-15T16:26:11.027Z,26.42
2019-06-15T16:36:46.752Z,26.27
2019-06-15T16:47:20.016Z,26.13
2019-06-15T16:57:53.341Z,26.02
2019-06-15T17:08:26.205Z,25.61
2019-06-15T17:18:59.560Z,25.13
2019-06-15T17:29:33.328Z,24.68
2019-06-15T17:40:06.875Z,24.61
2019-06-15T17:50:57.191Z,24.56
2019-06-15T18:01:31.806Z,23.93
2019-06-15T18:12:06.544Z,23.44
2019-06-15T18:22:40.346Z,22.84
2019-06-15T18:33:16.130Z,22.87
2019-06-15T18:43:49.608Z,22.73
2019-06-15T18:54:23.380Z,22.65
2019-06-15T19:04:56.920Z,22.61
2019-06-15T19:15:30.383Z,22.71
2019-06-15T19:26:06.278Z,22.77
2019-06-15T19:36:39.673Z,22.81
2019-06-15T19:47:16.176Z,22.75
2019-06-15T19:57:49.969Z,22.84
2019-06-15T20:08:22.813Z,22.69
2019-06-15T20:18:56.387Z,22.66
2019-06-15T20:29:29.582Z,22.65
2019-06-15T20:40:03.153Z,22.71
2019-06-15T20:50:36.499Z,22.65
2019-06-15T21:01:10.075Z,22.67
2019-06-15T21:11:43.834Z,22.55
2019-06-15T21:22:17.472Z,22.44
2019-06-15T21:32:50.985Z,22.49
2019-06-15T21:43:26.422Z,22.37
2019-06-15T21:53:59.275Z,22.36
2019-06-15T22:04:32.738Z,22.18
2019-06-15T22:15:06.894Z,22.00
2019-06-15T22:25:39.961Z,22.03
2019-06-15T22:36:22.194Z,21.85
2019-06-15T22:46:49.102Z,21.61
2019-06-15T22:57:22.853Z,21.55
2019-06-15T23:07:56.297Z,21.39
2019-06-15T23:18:29.880Z,20.92
2019-06-15T23:29:03.529Z,20.53
2019-06-15T23:39:37.189Z,20.05
2019-06-15T23:50:10.833Z,19.30
